Time;durP1;ratioP1;P1;durP2;ratioP2;P2;SDS_P1;SDS_P2;PMS_P1;PMS_P2;Temp;Humidity;BMP_temperature;BMP_pressure;BME280_temperature;BME280_humidity;BME280_pressure;Samples;Min_cycle;Max_cycle;Signal;HPM_P1;HPM_P2
2021/10/29 00:01:16;;;;;;;21.43;18.50;;;;;;;7.23;100.00;153218.22;5107862;28;20525;-73
2021/10/29 00:03:52;;;;;;;19.20;16.67;;;;;;;7.24;100.00;153219.53;5108387;28;20803;-74
2021/10/29 00:06:29;;;;;;;22.33;18.47;;;;;;;7.26;100.00;153224.66;5114632;28;20435;-73
2021/10/29 00:09:06;;;;;;;25.17;18.73;;;;;;;7.25;100.00;153222.13;5094879;28;20449;-73
2021/10/29 00:11:41;;;;;;;25.53;18.80;;;;;;;7.25;100.00;153223.38;5095321;28;20468;-73
2021/10/29 00:14:17;;;;;;;24.70;19.37;;;;;;;7.38;100.00;153254.41;5112541;27;20490;-73
2021/10/29 00:16:53;;;;;;;24.07;19.67;;;;;;;7.35;100.00;153249.25;5106439;28;20538;-73
2021/10/29 00:19:29;;;;;;;26.43;19.63;;;;;;;7.36;100.00;153250.50;5095205;28;20440;-73
2021/10/29 00:22:06;;;;;;;23.17;18.90;;;;;;;7.34;100.00;153246.63;5107814;27;20448;-73
2021/10/29 00:24:41;;;;;;;21.67;17.77;;;;;;;7.33;100.00;153242.78;5102463;27;20794;-73
2021/10/29 00:27:17;;;;;;;24.73;19.40;;;;;;;7.35;100.00;153247.94;5112598;27;20901;-73
2021/10/29 00:29:54;;;;;;;23.87;18.53;;;;;;;7.29;100.00;153233.72;5094832;28;21045;-73
2021/10/29 00:32:30;;;;;;;26.50;18.73;;;;;;;7.17;100.00;153201.47;5096888;28;20525;-74
2021/10/29 00:35:06;;;;;;;25.13;18.10;;;;;;;7.10;100.00;153183.34;5096287;28;20413;-73
2021/10/29 00:37:43;;;;;;;23.00;16.80;;;;;;;7.07;100.00;153175.66;5113793;28;20546;-73
2021/10/29 00:40:19;;;;;;;21.30;16.43;;;;;;;7.05;100.00;153170.44;5115677;28;20794;-73
2021/10/29 00:42:55;;;;;;;28.50;18.90;;;;;;;7.00;100.00;153158.84;5106478;28;20450;-73
2021/10/29 00:45:30;;;;;;;23.37;17.33;;;;;;;6.98;100.00;153152.38;5100061;28;20474;-73
2021/10/29 00:48:08;;;;;;;21.70;18.30;;;;;;;6.96;100.00;153148.53;5098186;28;20984;-73
2021/10/29 00:50:44;;;;;;;22.90;17.90;;;;;;;6.94;100.00;153143.34;5113541;28;20802;-73
2021/10/29 00:53:20;;;;;;;22.07;17.37;;;;;;;7.00;100.00;153157.53;5105459;27;20456;-73
2021/10/29 00:55:56;;;;;;;18.83;16.83;;;;;;;7.04;100.00;153167.91;5096379;28;20437;-73
2021/10/29 00:58:32;;;;;;;23.60;17.10;;;;;;;7.00;100.00;153158.84;5106458;28;20543;-73
2021/10/29 01:01:08;;;;;;;21.70;17.03;;;;;;;6.97;100.00;153149.78;5094470;28;20443;-73
2021/10/29 01:03:43;;;;;;;20.30;17.63;;;;;;;6.94;100.00;153143.34;5114259;28;20435;-73
2021/10/29 01:06:19;;;;;;;21.47;17.13;;;;;;;6.94;100.00;153142.03;5096347;27;20468;-73
2021/10/29 01:08:56;;;;;;;24.97;18.80;;;;;;;7.05;100.00;153170.44;5094756;28;20543;-73
2021/10/29 01:11:32;;;;;;;21.33;17.70;;;;;;;7.19;100.00;153207.91;5094608;28;20500;-73
2021/10/29 01:14:07;;;;;;;22.77;18.17;;;;;;;7.20;100.00;153210.47;5117534;27;20791;-73
2021/10/29 01:16:43;;;;;;;27.33;18.57;;;;;;;7.07;100.00;153176.91;5105648;28;20502;-73
2021/10/29 01:19:19;;;;;;;24.77;19.67;;;;;;;7.02;100.00;153164.00;5098598;28;20838;-73
2021/10/29 01:21:56;;;;;;;25.23;17.53;;;;;;;6.93;100.00;153140.78;5095976;28;20533;-73
2021/10/29 01:24:31;;;;;;;22.53;18.20;;;;;;;6.91;100.00;153135.59;5082797;28;20432;-73
2021/10/29 01:27:10;;;;;;;24.33;18.40;;;;;;;6.85;100.00;153118.81;5116042;28;20440;-73
2021/10/29 01:29:47;;;;;;;23.47;18.80;;;;;;;6.82;100.00;153111.06;5103573;28;20472;-73
2021/10/29 01:32:23;;;;;;;23.07;17.57;;;;;;;6.77;100.00;153099.47;5114108;27;20459;-73
2021/10/29 01:34:59;;;;;;;21.47;17.13;;;;;;;6.73;100.00;153089.13;5108323;28;20467;-73
2021/10/29 01:37:38;;;;;;;20.03;17.03;;;;;;;6.69;100.00;153078.81;5112470;28;20887;-73
2021/10/29 01:40:17;;;;;;;22.27;16.90;;;;;;;6.64;100.00;153065.91;5099809;28;20448;-73
2021/10/29 01:42:52;;;;;;;19.73;16.43;;;;;;;6.60;100.00;153055.56;5108361;28;20451;-72
2021/10/29 01:45:28;;;;;;;20.90;16.17;;;;;;;6.56;100.00;153045.25;5110585;27;20990;-73
2021/10/29 01:48:04;;;;;;;19.67;16.90;;;;;;;6.51;100.00;153033.63;5114955;28;20447;-72
2021/10/29 01:50:39;;;;;;;22.83;17.30;;;;;;;6.49;100.00;153027.16;5114483;28;20497;-72
2021/10/29 01:53:16;;;;;;;20.73;17.30;;;;;;;6.45;100.00;153016.88;5112804;28;20945;-73
2021/10/29 01:55:52;;;;;;;18.03;16.03;;;;;;;6.41;100.00;153007.81;5100186;28;20484;-73
2021/10/29 01:58:28;;;;;;;22.17;17.70;;;;;;;6.36;100.00;152993.63;5102745;28;20459;-73
2021/10/29 02:01:05;;;;;;;19.70;16.03;;;;;;;6.31;100.00;152980.72;5105090;28;20511;-74
2021/10/29 02:03:41;;;;;;;20.57;17.27;;;;;;;6.28;100.00;152972.97;5105955;28;20452;-73
2021/10/29 02:06:16;;;;;;;18.70;15.73;;;;;;;6.24;100.00;152963.97;5096825;28;20449;-73
2021/10/29 02:08:53;;;;;;;19.63;16.03;;;;;;;6.21;100.00;152956.22;5096889;28;20787;-73
2021/10/29 02:11:29;;;;;;;23.00;18.70;;;;;;;6.21;100.00;152954.94;5109167;27;20465;-72
2021/10/29 02:14:05;;;;;;;20.93;16.90;;;;;;;6.14;100.00;152938.19;5093240;28;20471;-73
2021/10/29 02:16:41;;;;;;;18.80;16.00;;;;;;;6.12;100.00;152932.97;5092757;28;20445;-72
2021/10/29 02:19:17;;;;;;;20.77;17.50;;;;;;;6.14;100.00;152939.44;5092811;28;20920;-72
2021/10/29 02:21:53;;;;;;;22.60;17.83;;;;;;;6.23;100.00;152960.06;5094142;28;20775;-72
2021/10/29 02:24:30;;;;;;;21.73;17.40;;;;;;;6.25;100.00;152965.28;5110005;27;20449;-72
2021/10/29 02:27:06;;;;;;;20.77;16.87;;;;;;;6.25;100.00;152965.28;5093457;28;20965;-72
2021/10/29 02:29:42;;;;;;;22.63;16.77;;;;;;;6.22;100.00;152958.81;5093527;28;20445;-72
2021/10/29 02:32:17;;;;;;;22.43;18.00;;;;;;;6.20;100.00;152952.31;5093654;27;20480;-72
2021/10/29 02:34:53;;;;;;;20.87;17.17;;;;;;;6.13;100.00;152936.88;5099049;28;20527;-72
2021/10/29 02:37:28;;;;;;;19.60;16.30;;;;;;;6.10;100.00;152929.13;5100941;27;20444;-72
2021/10/29 02:40:07;;;;;;;25.43;19.07;;;;;;;6.10;100.00;152929.13;5109583;28;20433;-72
2021/10/29 02:42:43;;;;;;;21.90;16.20;;;;;;;6.16;100.00;152942.03;5092603;28;20978;-73
2021/10/29 02:45:18;;;;;;;22.60;17.03;;;;;;;6.11;100.00;152930.44;5097197;28;20467;-72
2021/10/29 02:47:55;;;;;;;24.53;18.00;;;;;;;6.10;100.00;152929.13;5129729;27;20865;-72
2021/10/29 02:50:31;;;;;;;22.53;19.10;;;;;;;6.08;100.00;152922.69;5094815;27;20459;-72
2021/10/29 02:53:08;;;;;;;24.83;20.93;;;;;;;6.02;100.00;152907.19;5115487;27;20444;-72
2021/10/29 02:55:45;;;;;;;23.33;18.57;;;;;;;6.00;100.00;152902.03;5097961;28;20440;-72
2021/10/29 02:58:20;;;;;;;23.80;18.93;;;;;;;5.97;100.00;152894.28;5138876;27;20450;-72
2021/10/29 03:00:57;;;;;;;23.47;17.90;;;;;;;5.95;100.00;152890.44;5098821;28;20439;-72
2021/10/29 03:03:32;;;;;;;23.37;18.83;;;;;;;5.88;100.00;152872.34;5113734;28;20432;-72
2021/10/29 03:06:08;;;;;;;21.83;18.10;;;;;;;5.86;100.00;152865.91;5095649;28;20918;-72
2021/10/29 03:08:44;;;;;;;23.40;19.07;;;;;;;5.83;100.00;152859.41;5095542;28;20451;-72
2021/10/29 03:11:21;;;;;;;28.37;20.07;;;;;;;5.81;100.00;152854.28;5100034;27;20471;-72
2021/10/29 03:13:56;;;;;;;23.80;18.37;;;;;;;5.78;100.00;152846.53;5114207;28;20436;-72
2021/10/29 03:16:32;;;;;;;23.20;18.60;;;;;;;5.75;100.00;152838.78;5113897;27;20439;-72
2021/10/29 03:19:08;;;;;;;21.57;17.00;;;;;;;5.72;100.00;152829.78;5123620;27;20448;-72
2021/10/29 03:21:43;;;;;;;23.80;18.60;;;;;;;5.70;100.00;152825.88;5114192;27;20431;-72
2021/10/29 03:24:19;;;;;;;24.70;19.67;;;;;;;5.69;100.00;152823.34;5149774;27;20526;-72
2021/10/29 03:26:56;;;;;;;23.00;16.80;;;;;;;5.73;100.00;152833.63;5149860;27;20508;-72
2021/10/29 03:29:31;;;;;;;22.83;17.43;;;;;;;5.74;100.00;152836.22;5129684;27;20438;-72
2021/10/29 03:32:08;;;;;;;23.33;18.30;;;;;;;5.75;100.00;152838.78;5094643;28;20558;-72
2021/10/29 03:34:43;;;;;;;25.33;19.17;;;;;;;5.75;100.00;152837.47;5107099;27;20443;-72
2021/10/29 03:37:33;;;;;;;23.03;18.37;;;;;;;5.79;100.00;152847.81;5114686;28;20442;-72
2021/10/29 03:40:16;;;;;;;27.47;21.60;;;;;;;5.88;100.00;152872.34;5133134;27;20447;-73
2021/10/29 03:43:03;;;;;;;30.50;23.40;;;;;;;5.97;100.00;152895.59;5104562;28;20444;-72
2021/10/29 03:45:44;;;;;;;26.77;21.70;;;;;;;6.07;100.00;152921.38;5100396;28;20482;-72
2021/10/29 03:48:26;;;;;;;32.27;25.40;;;;;;;6.16;100.00;152943.31;5101306;28;20484;-72
2021/10/29 03:51:06;;;;;;;26.63;22.50;;;;;;;6.10;100.00;152927.84;5096243;28;20471;-72
2021/10/29 03:53:46;;;;;;;28.53;22.37;;;;;;;6.01;100.00;152904.66;5091169;28;20452;-72
2021/10/29 03:56:24;;;;;;;29.37;22.27;;;;;;;5.98;100.00;152898.16;5091701;28;20946;-72
2021/10/29 03:59:02;;;;;;;28.90;22.77;;;;;;;5.94;100.00;152887.84;5087474;28;20455;-72
2021/10/29 04:01:38;;;;;;;29.80;23.37;;;;;;;5.87;100.00;152869.81;5091753;28;20836;-72
2021/10/29 04:04:14;;;;;;;24.73;20.77;;;;;;;5.81;100.00;152852.97;5107816;28;20437;-72
2021/10/29 04:06:50;;;;;;;23.00;19.60;;;;;;;5.77;100.00;152843.94;5096959;28;20934;-72
2021/10/29 04:09:26;;;;;;;25.57;16.60;;;;;;;5.70;100.00;152825.88;5112226;28;20435;-72
2021/10/29 04:12:01;;;;;;;24.30;18.13;;;;;;;5.66;100.00;152814.28;5103967;28;20471;-72
2021/10/29 04:14:39;;;;;;;21.47;16.80;;;;;;;5.63;100.00;152806.56;5097091;28;20441;-73
2021/10/29 04:17:14;;;;;;;19.37;15.43;;;;;;;5.60;100.00;152800.09;5092798;28;20440;-72
2021/10/29 04:19:50;;;;;;;22.50;16.93;;;;;;;5.57;100.00;152792.38;5096014;28;20857;-73
2021/10/29 04:22:25;;;;;;;23.70;17.20;;;;;;;5.58;100.00;152794.97;5102332;28;20799;-73
2021/10/29 04:25:01;;;;;;;20.33;15.67;;;;;;;5.56;100.00;152789.75;5109410;28;20459;-73
2021/10/29 04:27:43;;;;;;;19.87;15.60;;;;;;;5.55;100.00;152787.22;5100870;28;20444;-73
2021/10/29 04:30:22;;;;;;;19.47;16.97;;;;;;;5.55;100.00;152787.22;5093060;28;20438;-73
2021/10/29 04:32:58;;;;;;;21.10;17.20;;;;;;;5.54;100.00;152785.91;5090772;28;20975;-73
2021/10/29 04:35:34;;;;;;;22.97;17.73;;;;;;;5.54;100.00;152784.63;5103878;28;20447;-73
2021/10/29 04:38:12;;;;;;;22.07;16.83;;;;;;;5.55;100.00;152787.22;5111198;28;20440;-73
2021/10/29 04:40:47;;;;;;;19.37;15.77;;;;;;;5.54;100.00;152785.91;5109186;28;20440;-73
2021/10/29 04:43:22;;;;;;;26.57;18.70;;;;;;;5.55;100.00;152787.22;5105784;28;20481;-73
2021/10/29 04:45:59;;;;;;;23.47;18.57;;;;;;;5.56;100.00;152789.75;5098662;28;20468;-73
2021/10/29 04:48:35;;;;;;;24.40;17.97;;;;;;;5.56;100.00;152788.50;5091458;28;20543;-73
2021/10/29 04:51:10;;;;;;;24.57;19.03;;;;;;;5.55;100.00;152787.22;5094579;27;20469;-73
2021/10/29 04:53:46;;;;;;;24.87;19.10;;;;;;;5.52;100.00;152779.47;5104144;28;20542;-73
2021/10/29 04:56:22;;;;;;;23.70;17.70;;;;;;;5.51;100.00;152776.88;5103540;28;20777;-73
2021/10/29 04:58:57;;;;;;;24.77;18.50;;;;;;;5.55;100.00;152787.22;5122260;27;20479;-73
2021/10/29 05:01:34;;;;;;;30.43;18.90;;;;;;;5.66;100.00;152815.59;5109725;28;20432;-73
2021/10/29 05:04:10;;;;;;;29.50;21.27;;;;;;;5.95;100.00;152889.16;5110434;28;20448;-74
2021/10/29 05:06:46;;;;;;;26.07;19.10;;;;;;;5.93;100.00;152884.00;5078819;28;20790;-73
2021/10/29 05:09:22;;;;;;;27.00;21.73;;;;;;;6.10;100.00;152927.84;5094496;28;20490;-73
2021/10/29 05:11:57;;;;;;;25.90;19.53;;;;;;;6.03;100.00;152909.78;5115206;28;20456;-73
2021/10/29 05:14:33;;;;;;;29.83;20.90;;;;;;;5.97;100.00;152895.59;5111342;27;20517;-73
2021/10/29 05:17:10;;;;;;;25.20;18.40;;;;;;;5.95;100.00;152890.44;5099666;27;20527;-73
2021/10/29 05:19:45;;;;;;;24.27;19.40;;;;;;;5.87;100.00;152869.81;5114338;28;20451;-73
2021/10/29 05:22:21;;;;;;;25.00;19.00;;;;;;;5.77;100.00;152843.94;5114247;28;20447;-73
2021/10/29 05:24:57;;;;;;;23.43;18.30;;;;;;;5.75;100.00;152838.78;5115446;28;20789;-73
2021/10/29 05:27:32;;;;;;;25.47;17.90;;;;;;;5.74;100.00;152836.22;5105933;28;20447;-73
2021/10/29 05:30:09;;;;;;;21.80;17.23;;;;;;;5.73;100.00;152833.63;5110893;27;20860;-73
2021/10/29 05:32:46;;;;;;;24.77;18.37;;;;;;;5.69;100.00;152823.34;5095622;28;20476;-73
2021/10/29 05:35:22;;;;;;;22.10;17.40;;;;;;;5.65;100.00;152813.00;5112924;27;20819;-73
2021/10/29 05:37:58;;;;;;;20.70;16.27;;;;;;;5.63;100.00;152806.56;5108149;28;20969;-73
2021/10/29 05:40:33;;;;;;;22.37;15.67;;;;;;;5.58;100.00;152794.97;5109370;28;20454;-73
2021/10/29 05:43:09;;;;;;;21.13;16.40;;;;;;;5.52;100.00;152779.47;5117191;27;20445;-73
2021/10/29 05:45:45;;;;;;;20.80;15.00;;;;;;;5.47;100.00;152767.88;5110748;28;20474;-73
2021/10/29 05:48:22;;;;;;;31.13;16.50;;;;;;;5.42;100.00;152753.69;5115093;28;20930;-73
2021/10/29 05:51:02;;;;;;;23.70;16.03;;;;;;;5.38;100.00;152743.34;5093753;28;20531;-73
2021/10/29 05:53:41;;;;;;;25.00;16.73;;;;;;;5.33;100.00;152730.47;5098576;28;20436;-73
2021/10/29 05:56:16;;;;;;;24.70;17.47;;;;;;;5.32;100.00;152727.91;5102490;28;20441;-73
2021/10/29 05:58:52;;;;;;;24.00;16.00;;;;;;;5.26;100.00;152712.44;5092287;28;20460;-73
2021/10/29 06:01:28;;;;;;;18.20;15.57;;;;;;;5.18;100.00;152691.81;5097817;27;20456;-73
2021/10/29 06:04:05;;;;;;;18.67;13.73;;;;;;;5.14;100.00;152681.47;5113588;28;20516;-73
2021/10/29 06:06:40;;;;;;;16.13;14.00;;;;;;;5.13;100.00;152678.94;5112022;28;20532;-73
2021/10/29 06:09:16;;;;;;;16.63;13.67;;;;;;;5.15;100.00;152685.38;5104218;28;20437;-73
2021/10/29 06:11:51;;;;;;;14.90;12.33;;;;;;;5.14;100.00;152681.47;5092289;27;20460;-74
2021/10/29 06:14:27;;;;;;;17.20;13.90;;;;;;;5.18;100.00;152693.09;5091534;28;20459;-73
2021/10/29 06:17:05;;;;;;;15.30;12.70;;;;;;;5.27;100.00;152715.03;5096390;28;20873;-73
2021/10/29 06:19:42;;;;;;;15.53;12.77;;;;;;;5.27;100.00;152715.03;5095035;28;20437;-73
2021/10/29 06:22:21;;;;;;;15.73;13.10;;;;;;;5.24;100.00;152707.28;5110843;28;20812;-73
2021/10/29 06:25:09;;;;;;;16.20;13.77;;;;;;;5.26;100.00;152712.44;5097081;27;21041;-73
2021/10/29 06:30:41;;;;;;;14.70;12.23;;;;;;;5.34;100.00;152733.06;5107275;28;20437;-73
2021/10/29 06:33:26;;;;;;;16.87;13.23;;;;;;;5.42;100.00;152755.00;5105431;27;21009;-73
2021/10/29 06:36:14;;;;;;;15.93;12.40;;;;;;;5.63;100.00;152806.56;5113476;27;20449;-73
2021/10/29 06:38:50;;;;;;;16.70;12.40;;;;;;;5.73;100.00;152833.63;5132354;27;20482;-74
2021/10/29 06:41:26;;;;;;;14.67;12.40;;;;;;;5.86;100.00;152865.91;5115563;27;20452;-73
2021/10/29 06:44:12;;;;;;;15.10;11.80;;;;;;;6.04;100.00;152913.63;5111382;27;20444;-73
2021/10/29 06:47:00;;;;;;;12.63;11.30;;;;;;;6.22;100.00;152958.81;5109829;27;20850;-73
2021/10/29 07:01:13;;;;;;;14.60;12.03;;;;;;;7.01;100.00;153161.44;5093220;27;20437;-74
2021/10/29 07:04:13;;;;;;;13.87;11.70;;;;;;;7.13;100.00;153192.41;5110040;28;20471;-74
2021/10/29 07:41:36;;;;;;;14.03;12.50;;;;;;;8.28;100.00;153487.00;5113751;27;20436;-74
2021/10/29 07:44:15;;;;;;;14.73;11.30;;;;;;;8.23;100.00;153472.72;5092931;28;20535;-74
2021/10/29 07:46:51;;;;;;;12.33;11.00;;;;;;;8.21;100.00;153468.81;5090913;28;20481;-74
2021/10/29 07:49:29;;;;;;;12.47;11.17;;;;;;;8.28;100.00;153487.00;5102488;27;20446;-73
2021/10/29 07:52:06;;;;;;;13.07;10.97;;;;;;;8.38;100.00;153511.53;5115644;27;20469;-74
2021/10/29 07:54:44;;;;;;;15.10;13.50;;;;;;;8.36;100.00;153507.69;5125798;28;20431;-74
2021/10/29 07:57:20;;;;;;;13.63;12.23;;;;;;;8.44;100.00;153527.06;5119842;28;20433;-73
2021/10/29 07:59:57;;;;;;;14.93;12.20;;;;;;;8.51;100.00;153545.13;5111392;28;20831;-74
2021/10/29 08:02:33;;;;;;;20.07;13.37;;;;;;;8.54;100.00;153554.19;5099685;28;20919;-73
2021/10/29 08:05:09;;;;;;;14.00;12.03;;;;;;;8.64;100.00;153577.44;5124507;27;20539;-74
2021/10/29 08:07:44;;;;;;;14.40;12.90;;;;;;;8.73;100.00;153600.72;5103660;28;20492;-74
2021/10/29 08:10:20;;;;;;;15.93;13.37;;;;;;;8.90;100.00;153645.97;5101598;28;20734;-73
2021/10/29 08:12:56;;;;;;;15.10;13.50;;;;;;;9.08;100.00;153692.50;5114244;28;20506;-73
2021/10/29 08:15:34;;;;;;;13.30;11.90;;;;;;;9.19;100.00;153719.69;5112425;28;20443;-73
2021/10/29 08:18:10;;;;;;;15.60;13.27;;;;;;;9.26;100.00;153737.81;5106027;28;20957;-74
2021/10/29 08:20:46;;;;;;;16.23;13.10;;;;;;;9.37;100.00;153766.22;5079989;28;20843;-73
2021/10/29 08:23:21;;;;;;;14.47;12.93;;;;;;;9.38;100.00;153767.53;5108137;28;20436;-73
2021/10/29 08:25:57;;;;;;;13.77;12.13;;;;;;;9.31;100.00;153750.75;5116914;28;20491;-73
2021/10/29 08:28:32;;;;;;;15.23;12.10;;;;;;;9.29;100.00;153744.28;5116650;28;20439;-73
2021/10/29 08:31:09;;;;;;;13.73;11.50;;;;;;;9.30;100.00;153748.13;5129186;27;20796;-73
2021/10/29 08:33:46;;;;;;;13.87;12.07;;;;;;;9.41;98.91;153775.31;5114217;28;20467;-73
2021/10/29 08:36:22;;;;;;;13.37;11.73;;;;;;;9.56;97.61;153815.41;5112927;28;20448;-74
2021/10/29 08:38:58;;;;;;;15.57;12.77;;;;;;;9.46;97.62;153789.53;5114762;28;20874;-73
2021/10/29 08:41:34;;;;;;;15.90;12.97;;;;;;;9.33;97.93;153755.91;5114784;28;20514;-73
2021/10/29 08:44:11;;;;;;;15.27;12.23;;;;;;;9.37;97.89;153766.22;5108768;28;20446;-74
2021/10/29 08:46:48;;;;;;;13.00;11.70;;;;;;;9.33;97.63;153755.91;5108785;27;20975;-74
2021/10/29 08:49:24;;;;;;;15.17;11.00;;;;;;;9.26;98.36;153737.81;5112547;27;20444;-74
2021/10/29 08:52:00;;;;;;;14.90;12.20;;;;;;;9.29;99.05;153744.28;5099403;28;20894;-74
2021/10/29 08:54:36;;;;;;;16.00;12.60;;;;;;;9.25;99.95;153735.22;5099842;27;20938;-74
2021/10/29 08:57:11;;;;;;;13.23;11.57;;;;;;;9.26;100.00;153736.50;5119068;27;20916;-73
2021/10/29 08:59:51;;;;;;;13.27;11.83;;;;;;;9.26;100.00;153737.81;5105799;28;20519;-74
2021/10/29 09:02:30;;;;;;;13.40;11.83;;;;;;;9.38;99.30;153768.84;5104009;28;20448;-73
2021/10/29 09:05:12;;;;;;;13.10;11.63;;;;;;;9.46;100.00;153788.22;5118079;27;20442;-73
2021/10/29 09:07:56;;;;;;;14.30;11.97;;;;;;;9.55;100.00;153812.84;5132119;27;20921;-74
2021/10/29 09:31:26;;;;;;;15.30;13.00;;;;;;;9.95;99.50;153915.06;5111002;28;20444;-73
2021/10/29 09:34:05;;;;;;;11.70;10.47;;;;;;;10.04;99.02;153937.03;5093925;28;20497;-74
2021/10/29 09:36:43;;;;;;;13.47;12.07;;;;;;;10.08;99.89;153947.41;5078432;28;20479;-74
2021/10/29 09:39:20;;;;;;;13.47;12.03;;;;;;;10.11;100.00;153956.44;5099700;28;20443;-73
2021/10/29 09:42:17;;;;;;;13.73;11.50;;;;;;;10.17;100.00;153970.72;5104060;28;20496;-74
2021/10/29 09:44:53;;;;;;;13.47;12.07;;;;;;;10.22;100.00;153984.97;5113384;27;20436;-74
2021/10/29 09:47:30;;;;;;;14.33;12.80;;;;;;;10.20;100.00;153979.81;5137931;27;20488;-73
2021/10/29 09:50:12;;;;;;;14.37;11.97;;;;;;;10.19;100.00;153975.94;5115064;27;20436;-74
2021/10/29 09:53:02;;;;;;;14.40;12.50;;;;;;;10.23;100.00;153986.28;5115830;27;20470;-73
2021/10/29 09:55:52;;;;;;;14.37;12.80;;;;;;;10.27;100.00;153996.66;5111573;27;20443;-74
2021/10/29 09:58:28;;;;;;;13.30;12.00;;;;;;;10.36;100.00;154019.94;5107276;27;20872;-74
2021/10/29 10:01:04;;;;;;;15.50;13.20;;;;;;;10.45;99.11;154043.25;5124764;27;20930;-74
2021/10/29 10:03:41;;;;;;;14.90;13.20;;;;;;;10.49;98.63;154053.59;5116480;27;20768;-74
2021/10/29 10:06:18;;;;;;;14.30;12.37;;;;;;;10.57;98.18;154073.00;5135701;27;20444;-73
2021/10/29 10:08:56;;;;;;;13.90;12.50;;;;;;;10.67;96.24;154098.94;5130479;27;20479;-74
2021/10/29 10:11:32;;;;;;;14.00;12.50;;;;;;;10.66;96.95;154096.31;5115211;27;20443;-74
2021/10/29 10:14:09;;;;;;;13.77;11.77;;;;;;;10.64;97.75;154091.16;5125423;27;20950;-74
2021/10/29 10:16:46;;;;;;;15.00;12.67;;;;;;;10.63;97.17;154089.84;5130360;27;20778;-74
2021/10/29 10:19:22;;;;;;;15.40;12.57;;;;;;;10.62;97.77;154087.25;5131494;27;20458;-74
2021/10/29 10:21:59;;;;;;;15.47;13.87;;;;;;;10.68;97.79;154102.78;5115785;27;20521;-74
2021/10/29 10:24:36;;;;;;;16.63;13.60;;;;;;;10.71;97.21;154110.56;5108024;28;20854;-74
2021/10/29 10:30:15;;;;;;;16.13;14.43;;;;;;;10.76;97.61;154123.53;5096454;28;20440;-74
2021/10/29 10:45:01;;;;;;;19.13;13.40;;;;;;;10.89;98.16;154157.19;5126696;27;20434;-74
2021/10/29 10:47:37;;;;;;;16.07;14.40;;;;;;;11.02;98.08;154190.84;5153714;27;20430;-74
2021/10/29 10:50:18;;;;;;;15.80;12.63;;;;;;;11.14;97.75;154219.38;5136518;27;20849;-74
2021/10/29 10:53:18;;;;;;;16.07;14.33;;;;;;;11.19;96.35;154232.31;5108198;27;20468;-74
2021/10/29 10:56:08;;;;;;;15.93;12.57;;;;;;;11.23;96.32;154243.97;5132182;27;20423;-74
2021/10/29 10:59:01;;;;;;;18.33;14.80;;;;;;;11.33;94.61;154268.59;5143808;27;20451;-74
2021/10/29 11:02:01;;;;;;;13.70;11.97;;;;;;;11.44;94.27;154297.06;5129926;27;20445;-74
2021/10/29 11:10:43;;;;;;;14.40;12.50;;;;;;;11.58;92.23;154333.38;5131334;27;20452;-74
2021/10/29 11:13:18;;;;;;;15.10;13.50;;;;;;;11.60;92.53;154338.53;5107766;27;20466;-74
2021/10/29 11:16:03;;;;;;;14.53;12.73;;;;;;;11.63;93.71;154347.63;5153033;27;20473;-74
2021/10/29 11:18:39;;;;;;;15.00;13.43;;;;;;;11.62;92.94;154343.75;5113285;28;20450;-74
2021/10/29 11:21:20;;;;;;;13.30;11.60;;;;;;;11.68;93.33;154357.97;5128369;27;20531;-74
2021/10/29 11:23:58;;;;;;;12.33;11.03;;;;;;;11.75;92.91;154377.50;5128240;27;20440;-74
2021/10/29 11:26:39;;;;;;;12.60;11.40;;;;;;;11.83;92.57;154398.22;5093852;28;20448;-74
2021/10/29 11:29:15;;;;;;;13.40;11.07;;;;;;;11.78;92.68;154383.97;5113126;27;20532;-74
2021/10/29 11:31:52;;;;;;;11.00;9.90;;;;;;;11.93;90.48;154424.16;5094483;28;21017;-74
2021/10/29 11:34:27;;;;;;;11.73;9.77;;;;;;;12.03;88.81;154448.75;5128028;27;20463;-74
2021/10/29 11:37:03;;;;;;;12.40;10.00;;;;;;;11.99;90.05;154439.66;5106873;27;20442;-74
2021/10/29 11:39:38;;;;;;;11.77;10.67;;;;;;;12.02;88.29;154447.44;5115504;27;20415;-74
2021/10/29 11:42:18;;;;;;;10.60;9.10;;;;;;;12.03;88.14;154448.75;5113382;27;20443;-74
2021/10/29 11:44:54;;;;;;;9.30;8.40;;;;;;;12.09;86.61;154465.63;5112412;28;20405;-74
2021/10/29 11:47:32;;;;;;;8.80;6.77;;;;;;;12.09;84.95;154465.63;5130747;27;20443;-74
2021/10/29 11:50:11;;;;;;;9.20;7.80;;;;;;;12.17;82.64;154485.06;5123908;27;20439;-74
2021/10/29 11:52:48;;;;;;;8.60;7.37;;;;;;;12.32;82.28;154522.66;5117951;27;20443;-74
2021/10/29 11:55:34;;;;;;;8.50;7.60;;;;;;;12.38;83.12;154538.22;5101591;28;20525;-74
2021/10/29 11:58:15;;;;;;;9.63;7.43;;;;;;;12.47;82.23;154561.59;5147261;27;20466;-74
2021/10/29 12:01:07;;;;;;;7.80;7.10;;;;;;;12.52;81.50;154574.53;5121371;27;20850;-74
2021/10/29 12:09:32;;;;;;;11.50;9.60;;;;;;;12.84;80.26;154657.50;5113801;27;20492;-74
2021/10/29 12:12:10;;;;;;;9.07;8.17;;;;;;;12.87;82.14;154665.28;5115912;28;20448;-74
2021/10/29 12:14:48;;;;;;;9.60;8.47;;;;;;;12.96;80.87;154688.66;5132721;27;20460;-74
2021/10/29 12:17:29;;;;;;;9.20;8.30;;;;;;;12.91;80.20;154674.41;5082815;27;20447;-74
2021/10/29 12:20:09;;;;;;;10.40;9.40;;;;;;;12.97;79.85;154691.28;5099205;28;20448;-74
2021/10/29 12:22:47;;;;;;;10.27;7.80;;;;;;;13.16;77.87;154740.59;5128905;27;20447;-74
2021/10/29 12:25:28;;;;;;;9.57;8.57;;;;;;;13.35;76.91;154789.91;5120104;27;20444;-74
2021/10/29 12:28:08;;;;;;;8.30;7.50;;;;;;;13.32;75.81;154782.13;5110059;27;20444;-74
2021/10/29 12:30:48;;;;;;;9.00;7.90;;;;;;;13.24;75.87;154761.34;5093858;28;20531;-74
2021/10/29 12:37:04;;;;;;;11.90;10.53;;;;;;;13.17;79.20;154743.22;5092018;28;20448;-74
2021/10/29 12:54:38;;;;;;;10.67;9.57;;;;;;;13.42;80.97;154808.06;5091761;28;20453;-74
2021/10/29 13:03:01;;;;;;;10.37;9.17;;;;;;;13.77;77.98;154897.63;5100833;28;20448;-74
2021/10/29 13:05:36;;;;;;;12.13;10.90;;;;;;;13.70;79.12;154878.16;5109362;28;20443;-74
2021/10/29 13:08:22;;;;;;;11.03;9.97;;;;;;;13.55;79.42;154839.22;5101777;28;20764;-74
2021/10/29 13:10:58;;;;;;;9.27;7.93;;;;;;;13.67;78.46;154870.34;5104152;28;20441;-74
2021/10/29 13:13:39;;;;;;;12.57;9.43;;;;;;;13.80;75.60;154905.41;5112891;28;20950;-74
2021/10/29 13:16:16;;;;;;;11.43;9.37;;;;;;;13.71;77.61;154880.78;5114769;28;20503;-74
2021/10/29 13:19:11;;;;;;;10.97;9.97;;;;;;;13.83;78.55;154913.22;5099705;27;20445;-74
2021/10/29 13:36:38;;;;;;;10.33;9.13;;;;;;;13.98;75.65;154950.81;5093439;28;20445;-74
2021/10/29 13:51:02;;;;;;;11.80;10.10;;;;;;;13.88;76.90;154926.19;5100216;28;20447;-73
2021/10/29 13:53:49;;;;;;;15.23;10.17;;;;;;;13.87;77.64;154923.56;5114995;27;20467;-74
2021/10/29 13:56:28;;;;;;;11.00;9.80;;;;;;;13.99;77.72;154954.75;5115170;27;20810;-74
2021/10/29 13:59:34;;;;;;;13.03;10.43;;;;;;;13.97;77.16;154948.25;5103796;27;20454;-74
2021/10/29 14:17:00;;;;;;;9.87;8.97;;;;;;;13.89;74.60;154927.50;5115039;27;20456;-73
2021/10/29 14:31:10;;;;;;;12.30;9.90;;;;;;;13.81;76.15;154906.72;5099607;28;20437;-73
2021/10/29 14:33:52;;;;;;;10.67;9.50;;;;;;;13.76;76.63;154895.06;5089875;28;20503;-73
2021/10/29 14:36:56;;;;;;;10.77;9.80;;;;;;;13.61;77.67;154856.06;5106741;22;20486;-73
2021/10/29 14:39:38;;;;;;;10.40;9.07;;;;;;;13.45;77.82;154814.53;5090286;28;20819;-73
2021/10/29 14:42:19;;;;;;;9.30;8.00;;;;;;;13.42;76.03;154806.81;5062345;28;20449;-73
2021/10/29 14:45:01;;;;;;;9.13;7.33;;;;;;;13.43;75.80;154810.66;5084874;28;20915;-73
2021/10/29 14:47:46;;;;;;;10.77;8.30;;;;;;;13.40;76.40;154802.88;5070205;28;20919;-73
2021/10/29 14:50:44;;;;;;;10.10;8.87;;;;;;;13.40;78.06;154802.88;5083718;28;20430;-73
2021/10/29 15:16:45;;;;;;;12.50;8.90;;;;;;;13.21;80.33;154753.56;5053897;28;20449;-73
2021/10/29 15:28:22;;;;;;;13.07;9.77;;;;;;;12.77;81.79;154640.66;5061803;28;20438;-73